Time;durP1;ratioP1;P1;durP2;ratioP2;P2;SDS_P1;SDS_P2;PMS_P1;PMS_P2;Temp;Humidity;BMP_temperature;BMP_pressure;BME280_temperature;BME280_humidity;BME280_pressure;Samples;Min_cycle;Max_cycle;Signal;HPM_P1;HPM_P2
2022/02/01 00:00:23;;;;;;;2.33;2.10;;;;;;;;;;6051667;23;20588;-88
2022/02/01 00:03:31;;;;;;;2.60;1.97;;;;;;;;;;6077940;23;20500;-88
2022/02/01 00:10:10;;;;;;;2.97;2.07;;;;;;;;;;6052804;23;21128;-88
2022/02/01 00:39:30;;;;;;;1.70;1.47;;;;;;;;;;6054888;23;20615;-88
2022/02/01 00:42:34;;;;;;;2.53;1.40;;;;;;;;;;6052423;23;20555;-88
2022/02/01 00:45:38;;;;;;;1.40;1.30;;;;;;;;;;6045178;23;20500;-89
2022/02/01 00:48:42;;;;;;;2.93;1.60;;;;;;;;;;6075357;23;20571;-88
2022/02/01 00:51:46;;;;;;;1.63;1.53;;;;;;;;;;6036263;23;20563;-88
2022/02/01 00:54:51;;;;;;;2.10;1.80;;;;;;;;;;6046605;23;21092;-88
2022/02/01 00:57:55;;;;;;;1.90;1.70;;;;;;;;;;6047183;23;20516;-88
2022/02/01 01:00:59;;;;;;;1.90;1.70;;;;;;;;;;6046779;23;20808;-88
2022/02/01 01:04:03;;;;;;;1.50;1.40;;;;;;;;;;6046668;23;21060;-88
2022/02/01 01:07:07;;;;;;;2.47;1.83;;;;;;;;;;6079528;23;20508;-88
2022/02/01 01:10:13;;;;;;;1.73;1.50;;;;;;;;;;6037836;23;20579;-88
2022/02/01 01:13:46;;;;;;;1.87;1.70;;;;;;;;;;6062767;23;21076;-89
2022/02/01 01:44:37;;;;;;;2.17;1.97;;;;;;;;;;6079125;23;20508;-88
2022/02/01 01:54:27;;;;;;;3.40;2.73;;;;;;;;;;6062084;23;20564;-89
2022/02/01 01:57:31;;;;;;;3.30;2.83;;;;;;;;;;6062805;23;20823;-89
2022/02/01 02:03:47;;;;;;;3.20;2.90;;;;;;;;;;6062360;23;20512;-89
2022/02/01 02:06:52;;;;;;;3.60;3.00;;;;;;;;;;6062418;23;20521;-89
2022/02/01 02:09:56;;;;;;;4.60;3.60;;;;;;;;;;6054435;23;20579;-89
2022/02/01 02:16:25;;;;;;;6.33;3.70;;;;;;;;;;6062096;23;20838;-89
2022/02/01 02:19:31;;;;;;;12.87;5.53;;;;;;;;;;6069358;23;20587;-89
2022/02/01 02:22:36;;;;;;;5.33;3.40;;;;;;;;;;6036593;23;20555;-89
2022/02/01 02:25:40;;;;;;;6.30;3.80;;;;;;;;;;6045529;23;21033;-88
2022/02/01 02:28:46;;;;;;;6.83;3.80;;;;;;;;;;6043013;23;20579;-88
2022/02/01 02:31:51;;;;;;;10.33;4.63;;;;;;;;;;6052618;23;20551;-89
2022/02/01 02:34:55;;;;;;;6.83;3.90;;;;;;;;;;6045524;23;20568;-89
2022/02/01 02:38:04;;;;;;;7.13;4.43;;;;;;;;;;6046364;23;20838;-90
2022/02/01 02:47:51;;;;;;;1.63;1.53;;;;;;;;;;6062329;23;20520;-89
2022/02/01 02:50:55;;;;;;;3.23;2.07;;;;;;;;;;6062268;23;20505;-89
2022/02/01 02:54:07;;;;;;;1.83;1.63;;;;;;;;;;6045586;23;20568;-89
2022/02/01 02:57:11;;;;;;;2.13;1.80;;;;;;;;;;6045640;23;21029;-88
2022/02/01 03:00:15;;;;;;;2.60;1.80;;;;;;;;;;6052936;23;20580;-89
2022/02/01 03:03:19;;;;;;;3.10;2.20;;;;;;;;;;6045849;23;20508;-89
2022/02/01 03:06:23;;;;;;;3.03;2.40;;;;;;;;;;6060631;23;20509;-89
2022/02/01 03:09:28;;;;;;;2.97;2.30;;;;;;;;;;6039740;23;21120;-89
2022/02/01 03:13:24;;;;;;;2.50;2.30;;;;;;;;;;6045614;23;20504;-89
2022/02/01 03:16:05;;;;;;;2.50;2.20;;;;;;;;;;6059573;23;20556;-90
2022/02/01 03:22:32;;;;;;;2.40;2.07;;;;;;;;;;6061595;23;20508;-89
2022/02/01 03:25:36;;;;;;;2.40;2.20;;;;;;;;;;6061548;23;20512;-89
2022/02/01 03:28:41;;;;;;;3.40;2.73;;;;;;;;;;6059081;23;20579;-88
2022/02/01 03:31:45;;;;;;;2.80;2.47;;;;;;;;;;6061627;23;20509;-87
2022/02/01 03:34:51;;;;;;;3.30;2.70;;;;;;;;;;6035256;23;20932;-89
2022/02/01 03:37:57;;;;;;;4.20;2.00;;;;;;;;;;6034998;23;20555;-88
2022/02/01 03:41:01;;;;;;;2.10;1.90;;;;;;;;;;6078522;23;20500;-88
2022/02/01 03:44:06;;;;;;;2.37;1.80;;;;;;;;;;6061739;23;20509;-88
2022/02/01 03:47:10;;;;;;;2.80;2.13;;;;;;;;;;6061493;23;20843;-88
2022/02/01 03:50:14;;;;;;;2.10;1.73;;;;;;;;;;6035277;23;20585;-88
2022/02/01 03:53:18;;;;;;;2.60;1.57;;;;;;;;;;6035504;23;21100;-88
2022/02/01 03:56:23;;;;;;;3.00;2.10;;;;;;;;;;6035542;23;20552;-88
2022/02/01 03:59:27;;;;;;;3.07;2.03;;;;;;;;;;6055836;23;20579;-88
2022/02/01 04:02:31;;;;;;;2.57;2.10;;;;;;;;;;6044826;23;20519;-88
2022/02/01 04:05:35;;;;;;;2.93;2.20;;;;;;;;;;6044909;23;20508;-88
2022/02/01 04:08:41;;;;;;;2.80;2.13;;;;;;;;;;6042554;23;20579;-88
2022/02/01 04:11:45;;;;;;;4.63;3.40;;;;;;;;;;6034961;23;20559;-88
2022/02/01 04:14:50;;;;;;;6.40;3.57;;;;;;;;;;6077769;23;20560;-88
2022/02/01 04:17:55;;;;;;;9.07;4.40;;;;;;;;;;6061744;23;20512;-88
2022/02/01 04:21:00;;;;;;;4.07;3.23;;;;;;;;;;6061245;23;20834;-88
2022/02/01 04:24:04;;;;;;;5.50;3.80;;;;;;;;;;6068012;23;20555;-88
2022/02/01 04:27:30;;;;;;;6.63;4.30;;;;;;;;;;6060677;23;20869;-88
2022/02/01 04:30:33;;;;;;;7.27;4.80;;;;;;;;;;6061168;23;20521;-88
2022/02/01 04:33:37;;;;;;;9.10;6.00;;;;;;;;;;6061588;23;20519;-88
2022/02/01 04:36:42;;;;;;;9.13;5.90;;;;;;;;;;6061370;23;20496;-87
2022/02/01 04:39:47;;;;;;;7.80;5.00;;;;;;;;;;6070301;23;21147;-88
2022/02/01 04:42:51;;;;;;;9.47;5.27;;;;;;;;;;6061801;23;20504;-88
2022/02/01 04:45:55;;;;;;;8.23;5.43;;;;;;;;;;6045037;23;20830;-88
2022/02/01 04:49:01;;;;;;;7.47;5.37;;;;;;;;;;6041260;23;20583;-88
2022/02/01 04:52:06;;;;;;;8.70;5.70;;;;;;;;;;6078511;23;20512;-88
2022/02/01 04:55:11;;;;;;;8.33;5.20;;;;;;;;;;6077872;23;20568;-88
2022/02/01 04:58:15;;;;;;;8.80;5.70;;;;;;;;;;6044704;23;20512;-88
2022/02/01 05:01:31;;;;;;;8.67;5.77;;;;;;;;;;6045717;23;20842;-88
2022/02/01 05:04:35;;;;;;;11.20;6.70;;;;;;;;;;6078485;23;20512;-88
2022/02/01 05:07:40;;;;;;;10.20;6.70;;;;;;;;;;6078982;23;20808;-88
2022/02/01 05:10:44;;;;;;;11.00;6.90;;;;;;;;;;6062190;23;20519;-88
2022/02/01 05:17:07;;;;;;;10.40;7.03;;;;;;;;;;6062082;23;20812;-88
2022/02/01 05:20:24;;;;;;;10.80;6.87;;;;;;;;;;6037757;23;20583;-88
2022/02/01 05:23:28;;;;;;;12.77;7.93;;;;;;;;;;6036501;23;20560;-87
2022/02/01 05:26:32;;;;;;;11.20;6.63;;;;;;;;;;6079284;23;20501;-88
2022/02/01 05:29:37;;;;;;;10.60;7.47;;;;;;;;;;6056497;23;20575;-88
2022/02/01 05:32:41;;;;;;;11.40;7.37;;;;;;;;;;6046821;23;20519;-88
2022/02/01 05:35:46;;;;;;;10.93;6.43;;;;;;;;;;6036977;23;20599;-88
2022/02/01 05:38:52;;;;;;;9.73;6.40;;;;;;;;;;6058116;23;20602;-87
2022/02/01 05:41:58;;;;;;;12.50;6.87;;;;;;;;;;6052358;23;20524;-87
2022/02/01 05:45:02;;;;;;;12.67;7.27;;;;;;;;;;6066596;23;20508;-88
2022/02/01 05:48:10;;;;;;;10.43;6.63;;;;;;;;;;6065436;23;20524;-87
2022/02/01 05:51:14;;;;;;;12.43;6.93;;;;;;;;;;6082410;23;20520;-87
2022/02/01 05:54:18;;;;;;;11.93;6.90;;;;;;;;;;6051125;23;20508;-87
2022/02/01 05:57:25;;;;;;;11.03;7.10;;;;;;;;;;6068675;23;20528;-87
2022/02/01 06:00:31;;;;;;;10.83;6.30;;;;;;;;;;6083265;23;20524;-88
2022/02/01 06:03:35;;;;;;;7.77;5.93;;;;;;;;;;6050388;23;20508;-87
2022/02/01 06:06:39;;;;;;;10.53;6.27;;;;;;;;;;6049554;23;20520;-88
2022/02/01 06:09:53;;;;;;;9.73;6.07;;;;;;;;;;6046375;23;20576;-88
2022/02/01 06:12:58;;;;;;;9.20;5.77;;;;;;;;;;6066815;23;20516;-88
2022/02/01 06:16:03;;;;;;;11.07;6.20;;;;;;;;;;6048503;23;20571;-87
2022/02/01 06:19:07;;;;;;;9.20;5.93;;;;;;;;;;6059682;23;20591;-87
2022/02/01 06:22:12;;;;;;;8.27;5.43;;;;;;;;;;6083455;23;20519;-87
2022/02/01 06:25:32;;;;;;;8.93;5.87;;;;;;;;;;6081941;23;20512;-87
2022/02/01 06:28:36;;;;;;;10.03;6.10;;;;;;;;;;6064926;23;20580;-86
2022/02/01 06:31:41;;;;;;;10.27;6.13;;;;;;;;;;6049823;23;20520;-87
2022/02/01 06:34:49;;;;;;;10.27;6.53;;;;;;;;;;6070648;23;20524;-87
2022/02/01 06:37:54;;;;;;;11.50;7.00;;;;;;;;;;6068722;23;20816;-87
2022/02/01 06:40:58;;;;;;;9.70;6.20;;;;;;;;;;6069910;23;20516;-87
2022/02/01 06:44:07;;;;;;;10.03;6.27;;;;;;;;;;6047899;23;20508;-87
2022/02/01 06:47:11;;;;;;;12.00;6.53;;;;;;;;;;6069378;23;20808;-86
2022/02/01 06:50:19;;;;;;;11.30;6.93;;;;;;;;;;6058924;23;21120;-87
2022/02/01 06:53:24;;;;;;;11.30;8.00;;;;;;;;;;6067978;23;20508;-87
2022/02/01 06:56:28;;;;;;;13.27;8.53;;;;;;;;;;6050368;23;20568;-86
2022/02/01 06:59:32;;;;;;;14.13;9.13;;;;;;;;;;6061766;23;20591;-86
2022/02/01 07:02:36;;;;;;;11.87;8.07;;;;;;;;;;6067612;23;20516;-87
2022/02/01 07:05:41;;;;;;;12.93;9.37;;;;;;;;;;6067411;23;20504;-85
2022/02/01 07:08:48;;;;;;;12.37;7.83;;;;;;;;;;6082335;23;20583;-86
2022/02/01 07:11:52;;;;;;;11.57;7.13;;;;;;;;;;6069438;23;20521;-86
2022/02/01 07:14:56;;;;;;;12.00;6.63;;;;;;;;;;6054137;23;20524;-89
2022/02/01 07:18:00;;;;;;;11.27;7.00;;;;;;;;;;6053605;23;20840;-87
2022/02/01 07:21:05;;;;;;;10.20;6.87;;;;;;;;;;6072132;23;20508;-85
2022/02/01 07:24:15;;;;;;;12.57;7.27;;;;;;;;;;6066995;23;20520;-88
2022/02/01 07:27:37;;;;;;;13.03;5.93;;;;;;;;;;6067286;23;20505;-87
2022/02/01 07:30:45;;;;;;;8.80;5.50;;;;;;;;;;6051783;23;20521;-87
2022/02/01 07:33:49;;;;;;;12.53;6.80;;;;;;;;;;6064467;23;20509;-87
2022/02/01 07:36:53;;;;;;;17.93;9.07;;;;;;;;;;6050716;23;20560;-87
2022/02/01 07:39:58;;;;;;;14.33;5.83;;;;;;;;;;6060914;23;20603;-87
2022/02/01 07:43:03;;;;;;;11.17;4.30;;;;;;;;;;6085173;23;20505;-86
2022/02/01 07:46:11;;;;;;;15.07;4.50;;;;;;;;;;6043176;23;20560;-86
2022/02/01 07:49:18;;;;;;;12.67;4.50;;;;;;;;;;6044455;23;20584;-86
2022/02/01 07:52:22;;;;;;;11.93;4.43;;;;;;;;;;6068448;23;20508;-86
2022/02/01 07:55:26;;;;;;;14.40;4.60;;;;;;;;;;6083518;23;20556;-88
2022/02/01 07:58:30;;;;;;;17.57;4.67;;;;;;;;;;6048983;23;20583;-86
2022/02/01 08:01:34;;;;;;;10.47;3.60;;;;;;;;;;6039912;23;20559;-87
2022/02/01 08:04:38;;;;;;;12.20;3.53;;;;;;;;;;6056564;23;20555;-87
2022/02/01 08:07:42;;;;;;;10.47;3.93;;;;;;;;;;6081536;23;20508;-86
2022/02/01 08:10:51;;;;;;;9.73;4.23;;;;;;;;;;6055200;23;20551;-87
2022/02/01 08:17:30;;;;;;;13.60;4.47;;;;;;;;;;6065863;23;20867;-87
2022/02/01 08:20:46;;;;;;;13.73;3.73;;;;;;;;;;6040363;23;20559;-86
2022/02/01 08:23:51;;;;;;;12.77;3.43;;;;;;;;;;6069849;23;21092;-88
2022/02/01 08:26:55;;;;;;;14.97;3.80;;;;;;;;;;6063504;23;20519;-88
2022/02/01 08:30:02;;;;;;;12.90;3.30;;;;;;;;;;6041711;23;20588;-88
2022/02/01 08:33:08;;;;;;;22.87;3.87;;;;;;;;;;6049225;23;20505;-88
2022/02/01 08:36:13;;;;;;;18.70;3.83;;;;;;;;;;6065203;23;20568;-88
2022/02/01 08:39:17;;;;;;;18.73;3.83;;;;;;;;;;6077913;23;20603;-87
2022/02/01 08:42:22;;;;;;;12.63;3.17;;;;;;;;;;6048920;23;20516;-87
2022/02/01 08:45:27;;;;;;;17.50;4.07;;;;;;;;;;6045032;23;20516;-88
2022/02/01 08:48:31;;;;;;;17.73;3.93;;;;;;;;;;6042885;23;20575;-88
2022/02/01 08:51:40;;;;;;;14.63;4.07;;;;;;;;;;6051760;23;20552;-88
2022/02/01 08:54:50;;;;;;;14.67;4.90;;;;;;;;;;6061782;23;20508;-87
2022/02/01 08:57:54;;;;;;;11.93;3.57;;;;;;;;;;6051574;23;20552;-88
2022/02/01 09:00:59;;;;;;;21.37;4.23;;;;;;;;;;6044386;23;20524;-89
2022/02/01 09:04:03;;;;;;;14.53;3.73;;;;;;;;;;6077812;23;20504;-90
2022/02/01 09:07:08;;;;;;;8.97;3.63;;;;;;;;;;6044780;23;20508;-90
2022/02/01 09:10:13;;;;;;;22.00;6.83;;;;;;;;;;6051066;23;20589;-89
2022/02/01 09:13:19;;;;;;;27.10;9.57;;;;;;;;;;6069584;23;20560;-89
2022/02/01 09:16:23;;;;;;;20.33;7.00;;;;;;;;;;6053709;23;20607;-90
2022/02/01 09:19:28;;;;;;;14.33;4.90;;;;;;;;;;6053182;23;20592;-89
2022/02/01 09:22:32;;;;;;;33.87;12.43;;;;;;;;;;6053479;23;20563;-89
2022/02/01 09:25:36;;;;;;;19.00;5.70;;;;;;;;;;6063407;23;20520;-89
2022/02/01 09:28:40;;;;;;;12.80;3.53;;;;;;;;;;6076608;23;20575;-89
2022/02/01 09:31:45;;;;;;;19.50;4.10;;;;;;;;;;6070007;23;20551;-89
2022/02/01 09:34:49;;;;;;;17.57;4.13;;;;;;;;;;6053172;23;20564;-89
2022/02/01 09:37:53;;;;;;;20.43;3.97;;;;;;;;;;6046210;23;20501;-90
2022/02/01 09:40:59;;;;;;;25.03;6.97;;;;;;;;;;6046508;23;20516;-90
2022/02/01 09:44:04;;;;;;;25.97;8.77;;;;;;;;;;6062978;23;20512;-90
2022/02/01 09:47:08;;;;;;;22.20;5.13;;;;;;;;;;6046563;23;20508;-90
2022/02/01 09:50:15;;;;;;;31.87;12.83;;;;;;;;;;6054301;23;20571;-89
2022/02/01 09:53:20;;;;;;;14.00;4.27;;;;;;;;;;6079426;23;20504;-89
2022/02/01 09:56:24;;;;;;;17.50;5.87;;;;;;;;;;6052829;23;20599;-89
2022/02/01 09:59:33;;;;;;;15.20;6.10;;;;;;;;;;6040443;23;20583;-89
2022/02/01 10:02:40;;;;;;;12.30;4.50;;;;;;;;;;6046172;23;20504;-89
2022/02/01 10:06:03;;;;;;;19.67;4.23;;;;;;;;;;6046108;23;20512;-89
2022/02/01 10:09:08;;;;;;;15.67;3.10;;;;;;;;;;6041848;23;20584;-90
2022/02/01 10:12:17;;;;;;;13.00;3.40;;;;;;;;;;6079071;23;20500;-90
2022/02/01 10:15:25;;;;;;;15.67;3.13;;;;;;;;;;6045928;23;20823;-90
2022/02/01 10:18:34;;;;;;;13.27;3.60;;;;;;;;;;6077147;23;20875;-88
2022/02/01 10:21:58;;;;;;;14.13;3.63;;;;;;;;;;6062011;23;21057;-87
2022/02/01 10:25:18;;;;;;;17.13;3.23;;;;;;;;;;6046362;23;20493;-87
2022/02/01 10:28:22;;;;;;;14.80;3.27;;;;;;;;;;6053498;23;20560;-87
2022/02/01 10:31:36;;;;;;;11.83;2.87;;;;;;;;;;6062267;23;20837;-88
2022/02/01 10:34:42;;;;;;;13.80;3.07;;;;;;;;;;6046232;23;20509;-87
2022/02/01 10:38:10;;;;;;;15.17;2.50;;;;;;;;;;6053113;23;20906;-87
2022/02/01 10:41:15;;;;;;;14.20;2.87;;;;;;;;;;6080079;23;20513;-87
2022/02/01 10:44:22;;;;;;;9.07;2.70;;;;;;;;;;6078956;23;20509;-87
2022/02/01 10:47:44;;;;;;;19.53;2.73;;;;;;;;;;6046179;23;20500;-87
2022/02/01 10:51:19;;;;;;;11.83;2.90;;;;;;;;;;6078951;23;21014;-86
2022/02/01 10:54:23;;;;;;;11.03;2.67;;;;;;;;;;6079049;23;21033;-87
2022/02/01 10:57:28;;;;;;;12.03;2.37;;;;;;;;;;6062567;23;20555;-87
2022/02/01 11:00:32;;;;;;;12.60;3.30;;;;;;;;;;6062038;23;20516;-87
2022/02/01 11:03:44;;;;;;;10.27;2.20;;;;;;;;;;6052834;23;20555;-87
2022/02/01 11:06:53;;;;;;;11.33;1.90;;;;;;;;;;6062352;23;20808;-87
2022/02/01 11:09:57;;;;;;;9.40;2.33;;;;;;;;;;6038115;23;20886;-86
2022/02/01 11:13:07;;;;;;;9.23;2.30;;;;;;;;;;6078735;23;21065;-88
2022/02/01 11:16:24;;;;;;;9.83;2.40;;;;;;;;;;6061549;23;20517;-88
2022/02/01 11:19:29;;;;;;;5.97;1.83;;;;;;;;;;6073036;23;20596;-88
2022/02/01 11:22:37;;;;;;;10.60;1.97;;;;;;;;;;6036022;23;20561;-88
2022/02/01 11:25:48;;;;;;;12.60;2.20;;;;;;;;;;6061894;23;20524;-88
2022/02/01 11:29:28;;;;;;;9.10;2.23;;;;;;;;;;6042885;23;20575;-88
2022/02/01 11:32:35;;;;;;;7.13;2.03;;;;;;;;;;6062228;23;20509;-89
2022/02/01 11:35:41;;;;;;;9.93;2.13;;;;;;;;;;6035945;23;20559;-90
2022/02/01 11:38:58;;;;;;;12.90;2.57;;;;;;;;;;6051804;23;20595;-89
2022/02/01 11:42:13;;;;;;;16.47;2.40;;;;;;;;;;6061796;23;20508;-89
2022/02/01 11:45:29;;;;;;;10.03;2.33;;;;;;;;;;6045453;23;20504;-89
2022/02/01 11:48:38;;;;;;;7.43;2.37;;;;;;;;;;6059446;23;20899;-89
2022/02/01 11:51:42;;;;;;;10.83;2.20;;;;;;;;;;6045347;23;20508;-89
2022/02/01 11:54:48;;;;;;;12.07;3.10;;;;;;;;;;6045078;23;20508;-89
2022/02/01 11:57:58;;;;;;;14.33;2.40;;;;;;;;;;6045314;23;20559;-90
2022/02/01 12:01:06;;;;;;;6.43;2.00;;;;;;;;;;6035881;23;20563;-90
2022/02/01 12:04:16;;;;;;;7.50;1.80;;;;;;;;;;6094817;23;20512;-89
2022/02/01 12:07:25;;;;;;;14.07;2.23;;;;;;;;;;6051535;23;20556;-90
2022/02/01 12:10:31;;;;;;;12.73;2.17;;;;;;;;;;6035589;23;20560;-89
2022/02/01 12:13:36;;;;;;;8.10;1.87;;;;;;;;;;6061138;23;20508;-89
2022/02/01 12:16:48;;;;;;;9.23;1.93;;;;;;;;;;6061252;23;20564;-89
2022/02/01 12:19:59;;;;;;;9.57;2.20;;;;;;;;;;6051693;23;20591;-89
2022/02/01 12:23:23;;;;;;;8.83;2.10;;;;;;;;;;6044937;23;20504;-88
2022/02/01 12:26:33;;;;;;;12.07;2.53;;;;;;;;;;6052992;23;20902;-89
2022/02/01 12:29:37;;;;;;;7.30;1.43;;;;;;;;;;6035469;23;20584;-88
2022/02/01 12:32:49;;;;;;;4.67;1.80;;;;;;;;;;6045338;23;20512;-89
2022/02/01 12:35:55;;;;;;;7.07;1.80;;;;;;;;;;6035285;23;21100;-88
2022/02/01 12:39:14;;;;;;;3.63;1.60;;;;;;;;;;6056207;23;20608;-89
2022/02/01 12:42:30;;;;;;;9.87;2.10;;;;;;;;;;6061948;23;20820;-89
2022/02/01 12:48:57;;;;;;;11.33;3.83;;;;;;;;;;6057491;23;20580;-89
2022/02/01 12:52:02;;;;;;;4.80;2.40;;;;;;;;;;6035542;23;20563;-89
2022/02/01 12:55:07;;;;;;;11.03;2.17;;;;;;;;;;6045200;23;20835;-89
2022/02/01 12:58:17;;;;;;;8.73;2.13;;;;;;;;;;6044081;23;20576;-89
2022/02/01 13:01:33;;;;;;;5.00;1.70;;;;;;;;;;6045049;23;20524;-88
2022/02/01 13:04:38;;;;;;;9.60;2.00;;;;;;;;;;6044629;23;20816;-88
2022/02/01 13:18:21;;;;;;;6.97;1.90;;;;;;;;;;6060861;23;20576;-89
2022/02/01 13:21:23;;;;;;;6.27;1.87;;;;;;;;;;6061308;23;20513;-89
2022/02/01 13:24:30;;;;;;;6.57;2.03;;;;;;;;;;6044794;23;20508;-88
2022/02/01 13:27:35;;;;;;;8.90;2.70;;;;;;;;;;6061428;23;21060;-89
2022/02/01 13:31:25;;;;;;;6.50;1.63;;;;;;;;;;6068624;23;20563;-88
2022/02/01 13:35:13;;;;;;;6.57;1.63;;;;;;;;;;6072275;23;20509;-86
2022/02/01 13:38:21;;;;;;;8.47;1.80;;;;;;;;;;6034664;23;20603;-83
2022/02/01 13:41:28;;;;;;;4.17;1.73;;;;;;;;;;6060803;23;20513;-85
2022/02/01 13:44:33;;;;;;;5.33;1.50;;;;;;;;;;6077441;23;20508;-86
2022/02/01 13:47:42;;;;;;;7.07;1.90;;;;;;;;;;6060575;23;21045;-85
2022/02/01 13:50:47;;;;;;;4.27;1.70;;;;;;;;;;6061480;23;20820;-85
2022/02/01 13:53:59;;;;;;;6.70;2.73;;;;;;;;;;6060702;23;20520;-85
2022/02/01 13:57:11;;;;;;;4.90;2.23;;;;;;;;;;6067722;23;20599;-86
2022/02/01 14:00:15;;;;;;;6.40;3.33;;;;;;;;;;6036495;23;20579;-85
2022/02/01 14:03:51;;;;;;;6.30;1.63;;;;;;;;;;6047286;23;20808;-85
2022/02/01 14:07:15;;;;;;;3.90;1.57;;;;;;;;;;6064340;23;21021;-85
2022/02/01 14:10:40;;;;;;;7.97;3.00;;;;;;;;;;6054079;23;20579;-85
2022/02/01 14:14:06;;;;;;;7.90;2.80;;;;;;;;;;6080067;23;20520;-85
2022/02/01 14:37:01;;;;;;;6.80;1.77;;;;;;;;;;6052829;23;20552;-85
2022/02/01 14:43:46;;;;;;;6.20;1.90;;;;;;;;;;6066315;23;20655;-83
2022/02/01 14:46:51;;;;;;;2.53;1.30;;;;;;;;;;6063762;23;21039;-82
2022/02/01 14:49:56;;;;;;;3.07;1.33;;;;;;;;;;6062182;23;21064;-88
2022/02/01 14:53:03;;;;;;;10.33;4.43;;;;;;;;;;6056497;23;20584;-84
2022/02/01 14:56:10;;;;;;;6.53;3.30;;;;;;;;;;6064806;23;20528;-83
2022/02/01 15:12:49;;;;;;;9.80;5.03;;;;;;;;;;6058719;23;20576;-84
2022/02/01 15:15:53;;;;;;;12.97;5.27;;;;;;;;;;6064406;23;20521;-84
2022/02/01 15:18:59;;;;;;;9.57;4.70;;;;;;;;;;6048393;23;20572;-84
2022/02/01 15:22:05;;;;;;;4.77;2.70;;;;;;;;;;6030548;23;20588;-84
2022/02/01 15:25:10;;;;;;;11.63;5.47;;;;;;;;;;6048329;23;20524;-85
2022/02/01 15:28:15;;;;;;;18.23;9.70;;;;;;;;;;6065145;23;20811;-85
2022/02/01 15:31:20;;;;;;;13.90;5.77;;;;;;;;;;6061775;23;20508;-84
2022/02/01 15:34:31;;;;;;;6.03;2.90;;;;;;;;;;6061826;23;20516;-84
2022/02/01 15:37:37;;;;;;;10.43;4.00;;;;;;;;;;6077675;23;20568;-83
2022/02/01 15:54:22;;;;;;;8.83;3.03;;;;;;;;;;6077972;23;20858;-85
2022/02/01 15:57:48;;;;;;;7.63;3.00;;;;;;;;;;6078433;23;20576;-84
2022/02/01 16:00:53;;;;;;;10.37;2.83;;;;;;;;;;6061694;23;20516;-85
2022/02/01 16:04:00;;;;;;;11.73;7.63;;;;;;;;;;6036582;23;20587;-85
2022/02/01 16:07:10;;;;;;;15.53;7.17;;;;;;;;;;6044583;23;20513;-84
2022/02/01 16:13:50;;;;;;;15.70;9.17;;;;;;;;;;6076813;23;20591;-85
2022/02/01 16:16:54;;;;;;;16.63;10.17;;;;;;;;;;6078334;23;20524;-85
2022/02/01 16:19:58;;;;;;;8.80;5.50;;;;;;;;;;6045404;23;20516;-85
2022/02/01 16:23:02;;;;;;;12.93;7.23;;;;;;;;;;6055546;23;20583;-84
2022/02/01 16:26:06;;;;;;;13.80;5.27;;;;;;;;;;6078097;23;20520;-85
2022/02/01 16:29:11;;;;;;;7.70;3.50;;;;;;;;;;6036563;23;20552;-84
2022/02/01 16:32:15;;;;;;;9.07;2.50;;;;;;;;;;6059377;23;20572;-85
2022/02/01 16:35:20;;;;;;;5.73;2.90;;;;;;;;;;6061724;23;20519;-85
2022/02/01 16:38:24;;;;;;;5.83;3.07;;;;;;;;;;6045511;23;20910;-85
2022/02/01 16:41:29;;;;;;;11.43;4.90;;;;;;;;;;6062592;23;20516;-85
2022/02/01 16:44:34;;;;;;;19.73;7.37;;;;;;;;;;6061784;23;20516;-86
2022/02/01 16:47:40;;;;;;;23.83;8.80;;;;;;;;;;6079408;23;20520;-85
2022/02/01 16:50:44;;;;;;;13.23;6.30;;;;;;;;;;6045361;23;20520;-84
2022/02/01 16:53:53;;;;;;;6.93;3.90;;;;;;;;;;6068238;23;20591;-85
2022/02/01 16:57:00;;;;;;;4.50;2.20;;;;;;;;;;6035378;23;20874;-84
2022/02/01 17:00:07;;;;;;;10.47;4.17;;;;;;;;;;6044836;23;20521;-83
2022/02/01 17:03:11;;;;;;;8.30;4.37;;;;;;;;;;6038596;23;20575;-83
2022/02/01 17:06:16;;;;;;;4.87;3.47;;;;;;;;;;6078741;23;20516;-84
2022/02/01 17:09:22;;;;;;;8.50;4.77;;;;;;;;;;6063259;23;20826;-84
2022/02/01 17:12:50;;;;;;;5.27;3.43;;;;;;;;;;6074533;23;21137;-83
2022/02/01 17:16:10;;;;;;;6.03;2.10;;;;;;;;;;6061291;23;20508;-82
2022/02/01 17:19:30;;;;;;;5.60;2.70;;;;;;;;;;6061400;23;20572;-82
2022/02/01 17:22:34;;;;;;;7.97;3.67;;;;;;;;;;6057718;23;20579;-82
2022/02/01 17:25:38;;;;;;;3.93;2.10;;;;;;;;;;6044698;23;20515;-82
2022/02/01 17:28:43;;;;;;;5.70;3.53;;;;;;;;;;6051560;23;20559;-82
2022/02/01 17:31:47;;;;;;;4.93;2.93;;;;;;;;;;6034427;23;20552;-85
2022/02/01 17:34:51;;;;;;;3.13;1.67;;;;;;;;;;6062928;23;20508;-82
2022/02/01 17:37:55;;;;;;;3.73;1.67;;;;;;;;;;6064530;23;20504;-83
2022/02/01 17:41:00;;;;;;;4.97;1.90;;;;;;;;;;6061363;23;20524;-82
2022/02/01 17:44:06;;;;;;;3.07;1.70;;;;;;;;;;6052731;23;20560;-82
2022/02/01 17:47:10;;;;;;;3.93;1.20;;;;;;;;;;6052950;23;20560;-82
2022/02/01 17:50:16;;;;;;;5.80;1.93;;;;;;;;;;6069312;23;20888;-82
2022/02/01 17:53:23;;;;;;;3.87;1.20;;;;;;;;;;6069991;23;20579;-83
2022/02/01 17:56:28;;;;;;;2.10;1.10;;;;;;;;;;6036671;23;20559;-82
2022/02/01 17:59:32;;;;;;;1.97;1.50;;;;;;;;;;6062957;23;20559;-82
2022/02/01 18:02:36;;;;;;;1.93;1.30;;;;;;;;;;6057795;23;20587;-82
2022/02/01 18:05:41;;;;;;;2.90;1.20;;;;;;;;;;6078767;23;20520;-82
2022/02/01 18:08:50;;;;;;;3.87;1.27;;;;;;;;;;6062572;23;20513;-83
2022/02/01 18:15:08;;;;;;;5.53;1.97;;;;;;;;;;6079800;23;20516;-83
2022/02/01 18:18:12;;;;;;;3.33;1.90;;;;;;;;;;6062133;23;20516;-83
2022/02/01 18:21:16;;;;;;;3.87;2.10;;;;;;;;;;6062917;23;20512;-83
2022/02/01 18:24:20;;;;;;;2.87;1.70;;;;;;;;;;6079694;23;21057;-83
2022/02/01 18:27:28;;;;;;;4.87;2.30;;;;;;;;;;6046288;23;20520;-83
2022/02/01 18:30:39;;;;;;;2.70;1.43;;;;;;;;;;6036739;23;21092;-83
2022/02/01 18:33:43;;;;;;;3.27;2.07;;;;;;;;;;6052889;23;20591;-83
2022/02/01 18:36:51;;;;;;;8.67;3.63;;;;;;;;;;6046209;23;20516;-83
2022/02/01 18:40:07;;;;;;;7.60;3.90;;;;;;;;;;6078843;23;21084;-83
2022/02/01 18:43:17;;;;;;;4.10;1.77;;;;;;;;;;6056655;23;20603;-83
2022/02/01 18:46:24;;;;;;;4.07;2.43;;;;;;;;;;6052201;23;20838;-83
2022/02/01 18:49:41;;;;;;;3.67;1.57;;;;;;;;;;6062582;23;20520;-83
2022/02/01 18:53:02;;;;;;;5.53;1.97;;;;;;;;;;6040687;23;20572;-83
2022/02/01 18:59:25;;;;;;;3.87;1.83;;;;;;;;;;6052679;23;20604;-83
2022/02/01 19:12:23;;;;;;;11.23;5.37;;;;;;;;;;6069105;23;20583;-84
2022/02/01 19:15:29;;;;;;;6.50;3.93;;;;;;;;;;6062677;23;20504;-83
2022/02/01 19:18:35;;;;;;;3.63;2.07;;;;;;;;;;6078645;23;20504;-83
2022/02/01 19:21:41;;;;;;;3.43;2.73;;;;;;;;;;6079718;23;20504;-83
2022/02/01 19:24:47;;;;;;;2.77;1.93;;;;;;;;;;6052431;23;20559;-83
2022/02/01 19:27:52;;;;;;;3.00;2.10;;;;;;;;;;6045918;23;20508;-84
2022/02/01 19:31:05;;;;;;;4.27;2.40;;;;;;;;;;6078577;23;20508;-83
2022/02/01 19:34:13;;;;;;;4.03;2.97;;;;;;;;;;6078543;23;20516;-83
2022/02/01 19:37:19;;;;;;;4.10;1.70;;;;;;;;;;6045905;23;20520;-84
2022/02/01 19:40:23;;;;;;;4.10;1.80;;;;;;;;;;6078802;23;20910;-83
2022/02/01 19:43:35;;;;;;;3.17;1.80;;;;;;;;;;6070720;23;20718;-84
2022/02/01 19:46:39;;;;;;;2.60;1.70;;;;;;;;;;6054921;23;20508;-84
2022/02/01 19:49:43;;;;;;;4.20;2.03;;;;;;;;;;6079362;23;20504;-84
2022/02/01 19:52:48;;;;;;;2.33;1.70;;;;;;;;;;6058659;23;20582;-84
2022/02/01 19:55:52;;;;;;;2.20;1.60;;;;;;;;;;6078241;23;20504;-84
2022/02/01 19:58:59;;;;;;;4.07;1.87;;;;;;;;;;6035658;23;20918;-84
2022/02/01 20:02:04;;;;;;;2.10;1.70;;;;;;;;;;6075458;23;20579;-83
2022/02/01 20:05:09;;;;;;;2.13;1.60;;;;;;;;;;6045314;23;20520;-84
2022/02/01 20:08:14;;;;;;;2.50;1.73;;;;;;;;;;6060912;23;20628;-83
2022/02/01 20:11:18;;;;;;;5.07;1.77;;;;;;;;;;6061365;23;20511;-84
2022/02/01 20:14:22;;;;;;;3.13;1.80;;;;;;;;;;6052714;23;20551;-84
2022/02/01 20:17:27;;;;;;;3.33;1.80;;;;;;;;;;6045594;23;20520;-84
2022/02/01 20:20:31;;;;;;;3.73;1.80;;;;;;;;;;6078169;23;20560;-84
2022/02/01 20:23:35;;;;;;;1.67;1.57;;;;;;;;;;6037345;23;20580;-84
2022/02/01 20:26:40;;;;;;;5.87;1.40;;;;;;;;;;6094579;23;20516;-84
2022/02/01 20:29:44;;;;;;;3.40;1.67;;;;;;;;;;6062062;23;20508;-84
2022/02/01 20:32:49;;;;;;;2.60;1.97;;;;;;;;;;6073419;23;20583;-84
2022/02/01 20:35:56;;;;;;;2.47;1.60;;;;;;;;;;6061884;23;21025;-84
2022/02/01 20:39:11;;;;;;;2.23;1.60;;;;;;;;;;6078113;23;20572;-84
2022/02/01 20:42:20;;;;;;;2.30;1.70;;;;;;;;;;6076585;23;21584;-85
2022/02/01 20:45:27;;;;;;;2.53;1.63;;;;;;;;;;6077168;23;20524;-83
2022/02/01 20:48:32;;;;;;;3.27;2.10;;;;;;;;;;6082849;23;20555;-82
2022/02/01 20:51:37;;;;;;;1.70;1.60;;;;;;;;;;6083923;23;20547;-83
2022/02/01 20:54:42;;;;;;;2.37;1.60;;;;;;;;;;6081922;23;20508;-83
2022/02/01 20:57:46;;;;;;;2.37;1.80;;;;;;;;;;6064934;23;20516;-83
2022/02/01 21:00:54;;;;;;;2.33;1.70;;;;;;;;;;6063876;23;20572;-83
2022/02/01 21:03:58;;;;;;;2.03;1.70;;;;;;;;;;6055346;23;20591;-83
2022/02/01 21:07:04;;;;;;;1.80;1.50;;;;;;;;;;6048409;23;20504;-83
2022/02/01 21:10:09;;;;;;;2.47;1.80;;;;;;;;;;6084121;23;20516;-83
2022/02/01 21:13:17;;;;;;;2.50;1.73;;;;;;;;;;6057967;23;20583;-83
2022/02/01 21:16:22;;;;;;;2.13;1.70;;;;;;;;;;6082434;23;21021;-83
2022/02/01 21:19:26;;;;;;;2.80;2.07;;;;;;;;;;6067306;23;20564;-83
2022/02/01 21:22:30;;;;;;;2.00;1.70;;;;;;;;;;6063785;23;20584;-83
2022/02/01 21:25:34;;;;;;;2.13;1.63;;;;;;;;;;6067331;23;20516;-83
2022/02/01 21:28:38;;;;;;;1.80;1.70;;;;;;;;;;6065591;23;20837;-83